Time,TemperatureF,DewpointF,PressureIn,WindDirection,WindDirectionDegrees,WindSpeedMPH,WindSpeedGustMPH,Humidity,HourlyPrecipIn,Conditions,Clouds,dailyrainin,SoftwareType,DateUTC
2013-03-11 00:01:00,53.0,35.0,30.36,NE,42,0.0,0.0,51,0.00,,,0.00,,2013-03-11 07:01:00,
2013-03-11 00:11:00,52.0,35.0,30.35,NE,42,0.0,0.0,53,0.00,,,0.00,,2013-03-11 07:11:00,
2013-03-11 00:21:00,52.0,35.0,30.35,NE,42,0.0,0.0,53,0.00,,,0.00,,2013-03-11 07:21:00,
2013-03-11 00:31:00,52.0,36.0,30.36,NE,42,0.0,0.0,54,0.00,,,0.00,,2013-03-11 07:31:00,
2013-03-11 00:42:00,52.0,36.0,30.36,NE,42,0.0,0.0,54,0.00,,,0.00,,2013-03-11 07:42:00,
2013-03-11 00:52:00,53.0,36.0,30.35,NE,42,0.0,0.0,53,0.00,,,0.00,,2013-03-11 07:52:00,
2013-03-11 01:02:00,53.0,36.0,30.35,NE,42,0.0,0.0,53,0.00,,,0.00,,2013-03-11 08:02:00,
2013-03-11 01:21:00,53.0,36.0,30.35,NE,42,0.0,0.0,53,0.00,,,0.00,,2013-03-11 08:21:00,
2013-03-11 01:52:00,52.0,36.0,30.35,NE,42,0.0,0.0,54,0.00,,,0.00,,2013-03-11 08:52:00,
2013-03-11 02:01:00,52.0,36.0,30.35,NE,42,0.0,0.0,55,0.00,,,0.00,,2013-03-11 09:01:00,
2013-03-11 02:22:00,51.0,37.0,30.35,NE,42,0.0,0.0,58,0.00,,,0.00,,2013-03-11 09:22:00,
2013-03-11 02:31:00,51.0,38.0,30.35,NE,42,0.0,0.0,60,0.00,,,0.00,,2013-03-11 09:31:00,
2013-03-11 02:41:00,51.0,38.0,30.35,NE,42,0.0,0.0,60,0.00,,,0.00,,2013-03-11 09:41:00,
2013-03-11 02:52:00,51.0,38.0,30.35,NE,42,0.0,0.0,62,0.00,,,0.00,,2013-03-11 09:52:00,
2013-03-11 03:01:00,51.0,38.0,30.35,NE,43,0.0,1.0,61,0.00,,,0.00,,2013-03-11 10:01:00,
2013-03-11 03:21:00,51.0,38.0,30.35,NE,44,0.0,-999.0,62,-99.99,,,-99.99,,2013-03-11 10:21:00,
2013-03-11 03:32:00,51.0,38.0,30.34,NE,44,0.0,-999.0,62,-99.99,,,-99.99,,2013-03-11 10:32:00,
2013-03-11 03:41:00,51.0,38.0,30.34,NE,44,0.0,-999.0,62,-99.99,,,-99.99,,2013-03-11 10:41:00,
2013-03-11 03:52:00,51.0,38.0,30.33,WSW,249,0.0,-999.0,61,-99.99,,,-99.99,,2013-03-11 10:52:00,
2013-03-11 04:01:00,51.0,38.0,30.33,NNE,13,0.0,-999.0,61,-99.99,,,-99.99,,2013-03-11 11:01:00,
2013-03-11 04:22:00,51.0,38.0,30.32,NNE,13,0.0,-999.0,61,-99.99,,,-99.99,,2013-03-11 11:22:00,
2013-03-11 04:32:00,51.0,38.0,30.32,NNE,13,0.0,-999.0,61,-99.99,,,-99.99,,2013-03-11 11:32:00,
2013-03-11 04:41:00,51.0,38.0,30.32,NNE,13,0.0,-999.0,61,-99.99,,,-99.99,,2013-03-11 11:41:00,
2013-03-11 04:52:00,50.0,38.0,30.32,NNE,13,0.0,-999.0,62,-99.99,,,-99.99,,2013-03-11 11:52:00,
2013-03-11 05:01:00,50.0,38.0,30.32,NNE,13,0.0,-999.0,62,-99.99,,,-99.99,,2013-03-11 12:01:00,
2013-03-11 05:22:00,51.0,39.0,30.32,NNE,13,0.0,0.0,63,0.00,,,0.00,,2013-03-11 12:22:00,
2013-03-11 05:32:00,51.0,39.0,30.32,NNE,13,0.0,0.0,63,0.00,,,0.00,,2013-03-11 12:32:00,
2013-03-11 06:01:00,50.0,39.0,30.32,NNE,13,0.0,1.0,66,0.00,,,0.00,,2013-03-11 13:01:00,
2013-03-11 06:31:00,49.0,38.0,30.32,NNE,13,0.0,0.0,66,0.00,,,0.00,,2013-03-11 13:31:00,
2013-03-11 06:42:00,49.0,38.0,30.32,NNE,13,0.0,0.0,66,0.00,,,0.00,,2013-03-11 13:42:00,
2013-03-11 06:52:00,49.0,38.0,30.32,NNE,13,0.0,0.0,66,0.00,,,0.00,,2013-03-11 13:52:00,
2013-03-11 07:01:00,49.0,38.0,30.32,NNE,13,0.0,1.0,66,0.00,,,0.00,,2013-03-11 14:01:00,
2013-03-11 07:12:00,49.0,38.0,30.32,NNE,13,0.0,1.0,66,0.00,,,0.00,,2013-03-11 14:12:00,
2013-03-11 07:21:00,49.0,38.0,30.32,NNE,13,0.0,1.0,65,0.00,,,0.00,,2013-03-11 14:21:00,
2013-03-11 07:32:00,49.0,37.0,30.32,NNE,13,0.0,1.0,62,0.00,,,0.00,,2013-03-11 14:32:00,
2013-03-11 07:42:00,49.0,37.0,30.32,NNE,13,0.0,1.0,62,0.00,,,0.00,,2013-03-11 14:42:00,
2013-03-11 07:52:00,50.0,36.0,30.32,NNE,13,0.0,0.0,59,0.00,,,0.00,,2013-03-11 14:52:00,
2013-03-11 08:01:00,50.0,36.0,30.33,NNE,13,0.0,0.0,59,0.00,,,0.00,,2013-03-11 15:01:00,
2013-03-11 08:22:00,50.0,35.0,30.33,NNE,14,0.0,1.0,57,0.00,,,0.00,,2013-03-11 15:22:00,
2013-03-11 08:31:00,51.0,35.0,30.33,NNE,15,0.0,1.0,54,0.00,,,0.00,,2013-03-11 15:31:00,
2013-03-11 08:53:00,52.0,37.0,30.33,NNE,14,0.0,1.0,56,0.00,,,0.00,,2013-03-11 15:53:00,
2013-03-11 09:22:00,52.0,37.0,30.34,NNE,14,0.0,0.0,57,0.00,,,0.00,,2013-03-11 16:22:00,
2013-03-11 09:31:00,52.0,37.0,30.34,NNE,14,0.0,0.0,56,0.00,,,0.00,,2013-03-11 16:31:00,
2013-03-11 09:52:00,52.0,38.0,30.35,NNE,14,0.0,0.0,58,0.00,,,0.00,,2013-03-11 16:52:00,
2013-03-11 10:02:00,53.0,38.0,30.35,North,9,0.0,1.0,57,0.00,,,0.00,,2013-03-11 17:02:00,
2013-03-11 10:23:00,56.0,40.0,30.35,North,9,0.0,0.0,54,0.00,,,0.00,,2013-03-11 17:23:00,
2013-03-11 10:33:00,56.0,41.0,30.34,NNE,19,0.0,2.0,56,0.00,,,0.00,,2013-03-11 17:33:00,
2013-03-11 10:52:00,57.0,43.0,30.34,NNE,20,0.0,3.0,59,0.00,,,0.00,,2013-03-11 17:52:00,
2013-03-11 11:01:00,58.0,42.0,30.34,NNE,21,0.0,2.0,56,0.00,,,0.00,,2013-03-11 18:01:00,
2013-03-11 11:22:00,59.0,42.0,30.34,NE,34,0.0,0.0,53,0.00,,,0.00,,2013-03-11 18:22:00,
2013-03-11 11:32:00,59.0,43.0,30.33,NE,34,0.0,2.0,56,0.00,,,0.00,,2013-03-11 18:32:00,
2013-03-11 11:42:00,59.0,43.0,30.33,NE,34,0.0,2.0,56,0.00,,,0.00,,2013-03-11 18:42:00,
2013-03-11 11:52:00,60.0,42.0,30.33,NNW,342,1.0,3.0,52,0.00,,,0.00,,2013-03-11 18:52:00,
2013-03-11 12:01:00,61.0,43.0,30.33,NNE,24,0.0,2.0,52,0.00,,,0.00,,2013-03-11 19:01:00,
2013-03-11 12:11:00,61.0,43.0,30.33,NNE,24,0.0,2.0,52,0.00,,,0.00,,2013-03-11 19:11:00,
2013-03-11 12:22:00,62.0,47.0,30.33,SSE,147,0.0,1.0,57,0.00,,,0.00,,2013-03-11 19:22:00,
2013-03-11 12:32:00,63.0,46.0,30.33,East,93,0.0,1.0,53,0.00,,,0.00,,2013-03-11 19:32:00,
2013-03-11 12:42:00,63.0,46.0,30.33,East,93,0.0,1.0,53,0.00,,,0.00,,2013-03-11 19:42:00,
2013-03-11 12:52:00,64.0,47.0,30.33,East,85,0.0,1.0,54,0.00,,,0.00,,2013-03-11 19:52:00,
2013-03-11 13:01:00,64.0,47.0,30.32,NE,48,0.0,1.0,54,0.00,,,0.00,,2013-03-11 20:01:00,
2013-03-11 13:11:00,64.0,47.0,30.32,NE,48,0.0,1.0,54,0.00,,,0.00,,2013-03-11 20:11:00,
2013-03-11 13:21:00,64.0,45.0,30.32,SW,223,1.0,2.0,51,0.00,,,0.00,,2013-03-11 20:21:00,
2013-03-11 13:32:00,65.0,45.0,30.32,NNE,33,2.0,5.0,48,0.00,,,0.00,,2013-03-11 20:32:00,
2013-03-11 13:52:00,65.0,47.0,30.31,NNE,12,0.0,5.0,53,0.00,,,0.00,,2013-03-11 20:52:00,
2013-03-11 14:02:00,64.0,47.0,30.31,NNE,26,2.0,5.0,55,0.00,,,0.00,,2013-03-11 21:02:00,
2013-03-11 14:11:00,64.0,47.0,30.31,NNE,26,2.0,5.0,55,0.00,,,0.00,,2013-03-11 21:11:00,
2013-03-11 14:22:00,64.0,47.0,30.31,North,11,0.0,1.0,54,0.00,,,0.00,,2013-03-11 21:22:00,
2013-03-11 14:31:00,64.0,47.0,30.30,North,11,3.0,6.0,55,0.00,,,0.00,,2013-03-11 21:31:00,
2013-03-11 14:42:00,64.0,47.0,30.30,North,11,3.0,6.0,55,0.00,,,0.00,,2013-03-11 21:42:00,
2013-03-11 14:52:00,63.0,46.0,30.30,North,5,0.0,5.0,54,0.00,,,0.00,,2013-03-11 21:52:00,
2013-03-11 15:01:00,63.0,45.0,30.30,NNE,31,0.0,3.0,51,0.00,,,0.00,,2013-03-11 22:01:00,
2013-03-11 15:11:00,63.0,45.0,30.30,NNE,31,0.0,3.0,51,0.00,,,0.00,,2013-03-11 22:11:00,
2013-03-11 15:21:00,63.0,46.0,30.29,ENE,59,0.0,2.0,54,0.00,,,0.00,,2013-03-11 22:21:00,
2013-03-11 15:32:00,63.0,46.0,30.29,NE,48,0.0,2.0,53,0.00,,,0.00,,2013-03-11 22:32:00,
2013-03-11 15:42:00,63.0,46.0,30.29,NE,48,0.0,2.0,53,0.00,,,0.00,,2013-03-11 22:42:00,
2013-03-11 15:53:00,63.0,46.0,30.29,NE,38,0.0,2.0,54,0.00,,,0.00,,2013-03-11 22:53:00,
2013-03-11 16:02:00,62.0,47.0,30.28,NNE,18,0.0,4.0,57,0.00,,,0.00,,2013-03-11 23:02:00,
2013-03-11 16:12:00,62.0,47.0,30.28,NNE,18,0.0,4.0,57,0.00,,,0.00,,2013-03-11 23:12:00,
2013-03-11 16:21:00,63.0,45.0,30.28,WNW,294,0.0,3.0,51,0.00,,,0.00,,2013-03-11 23:21:00,
2013-03-11 16:32:00,63.0,45.0,30.27,NNE,17,0.0,3.0,51,0.00,,,0.00,,2013-03-11 23:32:00,
2013-03-11 16:42:00,63.0,45.0,30.27,NNE,17,0.0,3.0,51,0.00,,,0.00,,2013-03-11 23:42:00,
2013-03-11 16:53:00,62.0,45.0,30.27,NE,34,1.0,4.0,54,0.00,,,0.00,,2013-03-11 23:53:00,
2013-03-11 17:01:00,61.0,45.0,30.27,NNE,20,1.0,3.0,55,0.00,,,0.00,,2013-03-12 00:01:00,
2013-03-11 17:12:00,61.0,45.0,30.27,NNE,20,1.0,3.0,55,0.00,,,0.00,,2013-03-12 00:12:00,
2013-03-11 17:22:00,60.0,45.0,30.27,NNE,19,0.0,3.0,58,0.00,,,0.00,,2013-03-12 00:22:00,
2013-03-11 17:32:00,59.0,44.0,30.27,NNE,19,0.0,2.0,58,0.00,,,0.00,,2013-03-12 00:32:00,
2013-03-11 17:42:00,59.0,44.0,30.27,NNE,19,0.0,2.0,58,0.00,,,0.00,,2013-03-12 00:42:00,
2013-03-11 17:53:00,57.0,44.0,30.26,NNE,19,0.0,2.0,61,0.00,,,0.00,,2013-03-12 00:53:00,
2013-03-11 18:01:00,57.0,44.0,30.25,NNE,17,1.0,3.0,61,0.00,,,0.00,,2013-03-12 01:01:00,
2013-03-11 18:11:00,57.0,44.0,30.25,NNE,17,1.0,3.0,61,0.00,,,0.00,,2013-03-12 01:11:00,
2013-03-11 18:21:00,56.0,44.0,30.25,NE,51,0.0,1.0,65,0.00,,,0.00,,2013-03-12 01:21:00,
2013-03-11 18:32:00,56.0,44.0,30.25,NE,35,0.0,1.0,65,0.00,,,0.00,,2013-03-12 01:32:00,
2013-03-11 18:42:00,56.0,44.0,30.25,NE,35,0.0,1.0,65,0.00,,,0.00,,2013-03-12 01:42:00,
2013-03-11 18:52:00,55.0,42.0,30.24,NNW,346,0.0,1.0,62,0.00,,,0.00,,2013-03-12 01:52:00,
2013-03-11 19:01:00,54.0,41.0,30.24,NNW,346,0.0,0.0,61,0.00,,,0.00,,2013-03-12 02:01:00,
2013-03-11 19:11:00,54.0,41.0,30.24,NNW,346,0.0,0.0,61,0.00,,,0.00,,2013-03-12 02:11:00,
2013-03-11 19:21:00,53.0,40.0,30.24,NNE,27,0.0,3.0,61,0.00,,,0.00,,2013-03-12 02:21:00,
2013-03-11 19:31:00,53.0,40.0,30.24,NNE,27,0.0,1.0,61,0.00,,,0.00,,2013-03-12 02:31:00,
2013-03-11 19:42:00,53.0,40.0,30.24,NNE,27,0.0,1.0,61,0.00,,,0.00,,2013-03-12 02:42:00,
2013-03-11 19:52:00,52.0,40.0,30.24,NNE,27,0.0,1.0,64,0.00,,,0.00,,2013-03-12 02:52:00,
2013-03-11 20:01:00,51.0,39.0,30.24,NNE,27,0.0,0.0,64,0.00,,,0.00,,2013-03-12 03:01:00,
2013-03-11 20:11:00,51.0,39.0,30.24,NNE,27,0.0,0.0,64,0.00,,,0.00,,2013-03-12 03:11:00,
2013-03-11 20:22:00,51.0,39.0,30.24,NNE,27,0.0,1.0,64,0.00,,,0.00,,2013-03-12 03:22:00,
2013-03-11 20:32:00,50.0,38.0,30.24,NNE,27,0.0,0.0,64,0.00,,,0.00,,2013-03-12 03:32:00,
2013-03-11 20:42:00,50.0,38.0,30.24,NNE,27,0.0,0.0,64,0.00,,,0.00,,2013-03-12 03:42:00,
2013-03-11 20:52:00,49.0,38.0,30.24,NNE,27,0.0,1.0,65,0.00,,,0.00,,2013-03-12 03:52:00,
2013-03-11 21:01:00,49.0,38.0,30.24,NNE,28,0.0,2.0,65,0.00,,,0.00,,2013-03-12 04:01:00,
2013-03-11 21:12:00,49.0,38.0,30.24,NNE,28,0.0,2.0,65,0.00,,,0.00,,2013-03-12 04:12:00,
2013-03-11 21:22:00,49.0,37.0,30.24,NNE,28,0.0,0.0,64,0.00,,,0.00,,2013-03-12 04:22:00,
2013-03-11 21:32:00,50.0,38.0,30.25,NNE,28,0.0,1.0,64,0.00,,,0.00,,2013-03-12 04:32:00,
2013-03-11 21:42:00,50.0,38.0,30.25,NNE,28,0.0,1.0,64,0.00,,,0.00,,2013-03-12 04:42:00,
2013-03-11 21:52:00,50.0,36.0,30.25,NNE,25,0.0,4.0,59,0.00,,,0.00,,2013-03-12 04:52:00,
2013-03-11 22:02:00,51.0,36.0,30.25,NNE,25,0.0,1.0,56,0.00,,,0.00,,2013-03-12 05:02:00,
2013-03-11 22:11:00,51.0,36.0,30.25,NNE,25,0.0,1.0,56,0.00,,,0.00,,2013-03-12 05:11:00,
2013-03-11 22:21:00,51.0,34.0,30.25,NNE,25,0.0,0.0,52,0.00,,,0.00,,2013-03-12 05:21:00,
2013-03-11 22:31:00,51.0,34.0,30.25,NNE,25,0.0,1.0,51,0.00,,,0.00,,2013-03-12 05:31:00,
2013-03-11 22:41:00,51.0,34.0,30.25,NNE,25,0.0,1.0,51,0.00,,,0.00,,2013-03-12 05:41:00,
2013-03-11 22:52:00,51.0,34.0,30.25,NNE,25,0.0,1.0,53,0.00,,,0.00,,2013-03-12 05:52:00,
2013-03-11 23:01:00,51.0,35.0,30.25,NNE,25,0.0,1.0,54,0.00,,,0.00,,2013-03-12 06:01:00,
2013-03-11 23:11:00,51.0,35.0,30.25,NNE,25,0.0,1.0,54,0.00,,,0.00,,2013-03-12 06:11:00,
2013-03-11 23:21:00,50.0,35.0,30.25,NNE,25,0.0,1.0,57,0.00,,,0.00,,2013-03-12 06:21:00,
2013-03-11 23:31:00,50.0,35.0,30.25,NNE,24,0.0,2.0,57,0.00,,,0.00,,2013-03-12 06:31:00,
2013-03-11 23:42:00,50.0,35.0,30.25,NNE,24,0.0,2.0,57,0.00,,,0.00,,2013-03-12 06:42:00,
2013-03-11 23:52:00,50.0,37.0,30.24,NNE,24,0.0,1.0,60,0.00,,,0.00,,2013-03-12 06:52:00,